createdAt,value
2022-10-22T00:01:45.613Z,84.09
2022-10-22T00:04:12.149Z,83.70
2022-10-22T00:06:38.702Z,84.28
2022-10-22T00:09:06.707Z,83.78
2022-10-22T00:11:33.421Z,83.87
2022-10-22T00:13:59.989Z,83.92
2022-10-22T00:16:26.685Z,83.22
2022-10-22T00:18:53.378Z,83.71
2022-10-22T00:21:20.206Z,83.47
2022-10-22T00:23:46.825Z,83.36
2022-10-22T00:26:13.701Z,84.04
2022-10-22T00:28:40.605Z,84.43
2022-10-22T00:31:07.401Z,83.38
2022-10-22T00:33:34.497Z,83.69
2022-10-22T00:36:01.030Z,83.43
2022-10-22T00:38:27.620Z,83.23
2022-10-22T00:40:54.313Z,83.17
2022-10-22T00:43:21.659Z,83.72
2022-10-22T00:45:48.377Z,83.00
2022-10-22T00:48:20.757Z,83.77
2022-10-22T00:51:01.139Z,83.23
2022-10-22T00:53:37.530Z,83.98
2022-10-22T00:56:05.038Z,83.89
2022-10-22T00:58:36.333Z,83.59
2022-10-22T01:01:05.386Z,83.24
2022-10-22T01:03:32.966Z,83.03
2022-10-22T01:06:01.552Z,83.50
2022-10-22T01:08:48.142Z,84.41
2022-10-22T01:11:20.826Z,83.24
2022-10-22T01:13:57.995Z,83.54
2022-10-22T01:16:35.529Z,83.98
2022-10-22T01:19:08.180Z,83.28
2022-10-22T01:21:45.509Z,84.22
2022-10-22T01:24:38.545Z,84.15
2022-10-22T01:27:24.953Z,83.72
2022-10-22T01:30:03.078Z,84.38
2022-10-22T01:32:32.846Z,83.73
2022-10-22T01:35:07.253Z,84.13
2022-10-22T01:37:40.614Z,83.62
2022-10-22T01:40:09.215Z,83.91
2022-10-22T01:42:36.941Z,83.62
2022-10-22T01:45:11.450Z,84.25
2022-10-22T01:48:11.162Z,83.52
2022-10-22T01:50:56.929Z,83.93
2022-10-22T01:53:38.879Z,84.14
2022-10-22T01:56:20.728Z,84.80
2022-10-22T01:59:04.551Z,84.31
2022-10-22T02:01:44.523Z,84.32
2022-10-22T02:04:26.801Z,84.10
2022-10-22T02:06:57.451Z,83.46
2022-10-22T02:09:27.986Z,83.94
2022-10-22T02:11:55.926Z,84.39
2022-10-22T02:14:24.763Z,84.18
2022-10-22T02:16:51.613Z,84.10
2022-10-22T02:19:36.922Z,84.66
2022-10-22T02:22:04.963Z,83.91
2022-10-22T02:24:31.724Z,84.40
2022-10-22T02:27:04.315Z,84.98
2022-10-22T02:29:35.018Z,84.79
2022-10-22T02:32:05.152Z,84.47
2022-10-22T02:34:32.659Z,84.62
2022-10-22T02:37:02.541Z,83.82
2022-10-22T02:39:31.691Z,84.06
2022-10-22T02:41:58.596Z,84.22
2022-10-22T02:44:25.362Z,84.84
2022-10-22T02:46:52.206Z,83.79
2022-10-22T02:49:18.830Z,84.28
2022-10-22T02:51:45.449Z,85.51
2022-10-22T02:54:12.009Z,84.74
2022-10-22T02:56:38.975Z,83.90
2022-10-22T02:59:05.652Z,84.10
2022-10-22T03:01:32.397Z,84.14
2022-10-22T03:03:58.992Z,85.38
2022-10-22T03:08:57.203Z,84.85
2022-10-22T03:11:23.799Z,86.00
2022-10-22T03:13:50.351Z,85.27
2022-10-22T03:16:17.001Z,85.09
2022-10-22T03:18:43.588Z,86.06
2022-10-22T03:21:25.300Z,86.03
2022-10-22T03:23:52.181Z,85.48
2022-10-22T03:26:19.149Z,85.80
2022-10-22T03:28:47.861Z,86.51
2022-10-22T03:31:14.801Z,86.53
2022-10-22T03:33:41.363Z,87.13
2022-10-22T03:36:09.093Z,86.57
2022-10-22T03:38:38.505Z,86.42
2022-10-22T03:41:05.500Z,86.15
2022-10-22T03:43:35.362Z,85.43
2022-10-22T03:46:01.989Z,85.09
2022-10-22T03:48:28.742Z,85.47
2022-10-22T03:50:55.294Z,86.08
2022-10-22T03:53:22.007Z,85.63
2022-10-22T03:55:48.977Z,85.89
2022-10-22T03:58:15.614Z,85.95
2022-10-22T04:00:42.243Z,86.50
2022-10-22T04:03:08.844Z,87.01
2022-10-22T04:05:35.419Z,85.75
2022-10-22T04:08:02.002Z,86.00
2022-10-22T04:10:28.579Z,85.76
2022-10-22T04:12:55.193Z,86.05
2022-10-22T04:15:22.023Z,84.86
2022-10-22T04:17:48.760Z,85.08
2022-10-22T04:20:15.323Z,85.39
2022-10-22T04:22:41.922Z,85.87
2022-10-22T04:25:08.802Z,85.66
2022-10-22T04:27:35.838Z,85.52
2022-10-22T04:30:04.186Z,85.77
2022-10-22T04:32:30.762Z,85.13
2022-10-22T04:34:57.510Z,85.40
2022-10-22T04:37:24.185Z,84.75
2022-10-22T04:39:50.745Z,85.31
2022-10-22T04:42:17.442Z,85.14
2022-10-22T04:44:44.028Z,85.76
2022-10-22T04:47:10.642Z,85.58
2022-10-22T04:49:37.238Z,86.19
2022-10-22T04:52:03.843Z,86.40
2022-10-22T04:54:32.984Z,86.02
2022-10-22T04:57:00.115Z,85.98
2022-10-22T04:59:26.806Z,86.00
2022-10-22T05:01:53.391Z,86.23
2022-10-22T05:04:19.909Z,86.19
2022-10-22T05:06:47.146Z,86.22
2022-10-22T05:09:16.224Z,85.74
2022-10-22T05:11:48.786Z,86.13
2022-10-22T05:14:23.876Z,86.40
2022-10-22T05:16:51.282Z,85.20
2022-10-22T05:19:29.485Z,85.86
2022-10-22T05:21:58.827Z,85.29
2022-10-22T05:24:26.576Z,85.67
2022-10-22T05:26:54.933Z,85.50
2022-10-22T05:29:22.438Z,86.29
2022-10-22T05:31:49.050Z,85.41
2022-10-22T05:34:15.771Z,85.96
2022-10-22T05:36:42.542Z,85.50
2022-10-22T05:39:09.237Z,85.54
2022-10-22T05:41:35.831Z,85.26
2022-10-22T05:44:03.230Z,85.95
2022-10-22T05:46:33.443Z,85.81
2022-10-22T05:49:02.573Z,85.33
2022-10-22T05:51:31.383Z,85.71
2022-10-22T05:54:01.254Z,85.04
2022-10-22T05:56:30.286Z,85.10
2022-10-22T05:58:57.585Z,85.41
2022-10-22T06:01:29.887Z,84.87
2022-10-22T06:03:59.132Z,85.38
2022-10-22T06:06:30.259Z,85.56
2022-10-22T06:09:20.519Z,85.54
2022-10-22T06:11:47.879Z,85.04
2022-10-22T06:14:15.138Z,85.86
2022-10-22T06:16:41.892Z,85.29
2022-10-22T06:19:11.202Z,85.43
2022-10-22T06:21:37.801Z,85.24
2022-10-22T06:24:04.996Z,85.07
2022-10-22T06:26:32.036Z,85.70
2022-10-22T06:28:59.612Z,85.03
2022-10-22T06:31:27.061Z,84.95
2022-10-22T06:33:53.785Z,85.14
2022-10-22T06:36:23.129Z,84.86
2022-10-22T06:38:56.597Z,85.96
2022-10-22T06:41:25.764Z,85.23
2022-10-22T06:43:57.234Z,85.14
2022-10-22T06:46:24.952Z,84.78
2022-10-22T06:48:54.291Z,85.05
2022-10-22T06:51:23.726Z,84.73
2022-10-22T06:53:50.359Z,85.28
2022-10-22T06:56:19.570Z,84.96
2022-10-22T06:58:51.070Z,85.41
2022-10-22T07:01:20.427Z,85.32
2022-10-22T07:03:47.518Z,85.09
2022-10-22T07:06:14.954Z,85.02
2022-10-22T07:08:42.125Z,84.84
2022-10-22T07:11:09.801Z,84.76
2022-10-22T07:13:36.981Z,85.00
2022-10-22T07:16:04.944Z,85.19
2022-10-22T07:18:32.677Z,84.83
2022-10-22T07:20:59.636Z,85.32
2022-10-22T07:23:27.061Z,84.71
2022-10-22T07:25:53.766Z,85.23
2022-10-22T07:28:21.096Z,84.39
2022-10-22T07:30:47.726Z,84.84
2022-10-22T07:33:14.918Z,84.63
2022-10-22T07:35:42.315Z,84.78
2022-10-22T07:38:09.061Z,84.17
2022-10-22T07:40:36.285Z,84.49
2022-10-22T07:43:03.119Z,84.02
2022-10-22T07:45:29.802Z,83.74
2022-10-22T07:47:56.357Z,84.08
2022-10-22T07:50:22.944Z,83.93
2022-10-22T07:52:49.562Z,83.31
2022-10-22T07:55:16.158Z,83.55
2022-10-22T07:57:42.762Z,82.96
2022-10-22T08:00:10.319Z,82.99
2022-10-22T08:02:39.894Z,82.72
2022-10-22T08:05:07.445Z,82.62
2022-10-22T08:07:33.979Z,82.86
2022-10-22T08:10:00.592Z,82.78
2022-10-22T08:12:27.747Z,82.37
2022-10-22T08:14:54.623Z,82.50
2022-10-22T08:17:21.212Z,82.65
2022-10-22T08:19:47.759Z,82.30
2022-10-22T08:22:14.361Z,82.00
2022-10-22T08:24:41.398Z,82.76
2022-10-22T08:27:07.999Z,82.79
2022-10-22T08:29:34.565Z,81.97
2022-10-22T08:32:02.827Z,82.33
2022-10-22T08:34:30.885Z,81.96
2022-10-22T08:36:57.562Z,82.01
2022-10-22T08:39:24.166Z,81.72
2022-10-22T08:41:56.513Z,81.72
2022-10-22T08:44:39.049Z,81.15
2022-10-22T08:47:24.282Z,80.95
2022-10-22T08:49:53.545Z,81.27
2022-10-22T08:52:20.679Z,81.98
2022-10-22T08:54:55.563Z,79.80
2022-10-22T08:57:40.779Z,80.01
2022-10-22T09:00:46.261Z,79.33
2022-10-22T09:03:49.787Z,76.26
2022-10-22T09:06:24.498Z,77.96
2022-10-22T09:08:52.760Z,77.53
2022-10-22T09:11:33.107Z,75.51
2022-10-22T09:14:02.929Z,77.60
2022-10-22T09:17:02.058Z,76.30
2022-10-22T09:19:43.799Z,75.49
2022-10-22T09:22:27.348Z,73.52
2022-10-22T09:25:11.684Z,74.19
2022-10-22T09:27:38.204Z,74.79
2022-10-22T09:30:05.482Z,75.68
2022-10-22T09:32:33.063Z,75.50
2022-10-22T09:34:59.663Z,75.07
2022-10-22T09:37:28.669Z,74.31
2022-10-22T09:39:57.322Z,72.90
2022-10-22T09:42:23.882Z,74.14
2022-10-22T09:44:59.201Z,73.69
2022-10-22T09:48:00.531Z,72.01
2022-10-22T09:50:48.687Z,72.35
2022-10-22T09:53:27.014Z,71.84
2022-10-22T09:55:59.616Z,71.46
2022-10-22T09:58:27.121Z,72.48
2022-10-22T10:00:58.464Z,73.00
2022-10-22T10:03:28.930Z,72.52
2022-10-22T10:06:01.570Z,72.34
2022-10-22T10:08:31.788Z,72.65
2022-10-22T10:11:19.649Z,71.76
2022-10-22T10:13:53.447Z,70.05
2022-10-22T10:16:44.144Z,68.05
2022-10-22T10:19:29.310Z,67.90
2022-10-22T10:22:14.517Z,68.27
2022-10-22T10:25:22.841Z,68.49
2022-10-22T10:27:54.135Z,66.42
2022-10-22T10:30:24.714Z,66.65
2022-10-22T10:33:08.471Z,65.75
2022-10-22T10:35:47.102Z,65.57
2022-10-22T10:38:43.224Z,63.75
2022-10-22T10:41:25.374Z,63.81
2022-10-22T10:44:33.279Z,64.09
2022-10-22T10:47:12.337Z,64.64
2022-10-22T10:49:38.876Z,66.21
2022-10-22T10:52:32.571Z,62.52
2022-10-22T10:55:15.340Z,63.57
2022-10-22T10:58:20.338Z,62.26
2022-10-22T11:00:55.597Z,62.42
2022-10-22T11:03:40.388Z,61.58
2022-10-22T11:06:12.165Z,62.67
2022-10-22T11:09:11.095Z,62.54
2022-10-22T11:12:00.997Z,62.61
2022-10-22T11:14:48.518Z,62.04
2022-10-22T11:17:18.394Z,62.99
2022-10-22T11:19:57.806Z,63.15
2022-10-22T11:22:28.357Z,64.18
2022-10-22T11:25:13.626Z,63.22
2022-10-22T11:28:11.265Z,63.25
2022-10-22T11:30:43.441Z,62.16
2022-10-22T11:33:18.918Z,64.20
2022-10-22T11:35:47.070Z,62.32
2022-10-22T11:38:17.361Z,62.60
2022-10-22T11:40:51.937Z,62.40
2022-10-22T11:43:52.976Z,62.45
2022-10-22T11:46:19.644Z,62.80
2022-10-22T11:49:02.692Z,61.33
2022-10-22T11:51:31.946Z,60.94
2022-10-22T11:53:58.655Z,62.88
2022-10-22T11:56:27.345Z,61.40
2022-10-22T11:58:55.397Z,60.76
2022-10-22T12:01:23.736Z,60.85
2022-10-22T12:03:53.607Z,59.79
2022-10-22T12:06:25.339Z,61.39
2022-10-22T12:08:54.765Z,61.99
2022-10-22T12:11:39.537Z,61.03
2022-10-22T12:14:29.821Z,60.46
2022-10-22T12:17:09.702Z,60.85
2022-10-22T12:19:39.416Z,61.24
2022-10-22T12:22:17.067Z,59.02
2022-10-22T12:24:51.747Z,59.37
2022-10-22T12:27:34.640Z,59.44
2022-10-22T12:30:02.958Z,61.87
2022-10-22T12:32:39.000Z,60.00
2022-10-22T12:35:18.010Z,60.48
2022-10-22T12:37:45.056Z,61.81
2022-10-22T12:40:18.909Z,61.81
2022-10-22T12:43:12.354Z,62.39
2022-10-22T12:45:40.290Z,63.62
2022-10-22T12:48:17.394Z,62.55
2022-10-22T12:50:48.546Z,61.94
2022-10-22T12:53:17.719Z,61.28
2022-10-22T12:55:49.464Z,61.67
2022-10-22T12:58:25.432Z,61.13
2022-10-22T13:01:02.167Z,62.57
2022-10-22T13:03:38.460Z,62.02
2022-10-22T13:06:24.258Z,60.36
2022-10-22T13:09:00.116Z,60.96
2022-10-22T13:11:39.807Z,61.13
2022-10-22T13:14:28.465Z,60.69
2022-10-22T13:17:19.320Z,61.12
2022-10-22T13:19:47.809Z,60.94
2022-10-22T13:22:23.645Z,60.80
2022-10-22T13:24:51.197Z,61.95
2022-10-22T13:27:17.990Z,62.06
2022-10-22T13:29:44.944Z,62.62
2022-10-22T13:32:33.831Z,61.32
2022-10-22T13:35:02.616Z,62.26
2022-10-22T13:37:32.469Z,62.83
2022-10-22T13:39:59.048Z,62.84
2022-10-22T13:42:25.646Z,63.83
2022-10-22T13:44:52.213Z,63.84
2022-10-22T13:47:28.020Z,63.75
2022-10-22T13:49:58.498Z,64.50
2022-10-22T13:52:29.556Z,64.85
2022-10-22T13:54:56.122Z,64.75
2022-10-22T13:57:22.858Z,64.05
2022-10-22T13:59:49.538Z,64.52
2022-10-22T14:02:17.326Z,64.43
2022-10-22T14:04:47.275Z,64.46
2022-10-22T14:07:17.514Z,62.64
2022-10-22T14:09:44.105Z,62.56
2022-10-22T14:12:16.136Z,63.30
2022-10-22T14:14:43.260Z,63.78
2022-10-22T14:17:16.691Z,63.01
2022-10-22T14:19:46.585Z,62.91
2022-10-22T14:22:17.894Z,63.37
2022-10-22T14:24:45.613Z,62.98
2022-10-22T14:27:14.236Z,63.08
2022-10-22T14:29:41.453Z,63.01
2022-10-22T14:32:16.693Z,62.26
2022-10-22T14:34:43.315Z,62.64
2022-10-22T14:37:18.904Z,60.01
2022-10-22T14:39:47.039Z,62.04
2022-10-22T14:42:14.464Z,62.65
2022-10-22T14:44:41.080Z,62.88
2022-10-22T14:47:07.695Z,62.63
2022-10-22T14:49:34.385Z,63.15
2022-10-22T14:52:01.025Z,62.79
2022-10-22T14:54:28.319Z,62.96
2022-10-22T14:56:54.818Z,61.56
2022-10-22T14:59:21.374Z,62.59
2022-10-22T15:01:47.913Z,62.08
2022-10-22T15:04:15.033Z,61.89
2022-10-22T15:06:41.663Z,62.40
2022-10-22T15:09:08.284Z,62.34
2022-10-22T15:11:34.892Z,62.67
2022-10-22T15:14:01.479Z,62.98
2022-10-22T15:16:28.061Z,63.27
2022-10-22T15:18:54.625Z,63.89
2022-10-22T15:21:23.012Z,64.30
2022-10-22T15:23:49.761Z,64.51
2022-10-22T15:26:16.962Z,64.89
2022-10-22T15:28:43.595Z,65.54
2022-10-22T15:31:13.288Z,66.03
2022-10-22T15:33:41.822Z,66.18
2022-10-22T15:36:16.170Z,66.30
2022-10-22T15:38:42.756Z,66.44
2022-10-22T15:41:12.322Z,66.83
2022-10-22T15:43:38.984Z,66.90
2022-10-22T15:46:19.237Z,67.57
2022-10-22T15:48:46.345Z,67.92
2022-10-22T15:51:15.924Z,68.29
2022-10-22T15:53:43.114Z,68.04
2022-10-22T15:56:11.771Z,68.57
2022-10-22T15:58:38.348Z,69.68
2022-10-22T16:01:07.331Z,69.24
2022-10-22T16:03:34.577Z,69.16
2022-10-22T16:06:01.495Z,70.03
2022-10-22T16:08:29.198Z,71.25
2022-10-22T16:10:55.768Z,70.64
2022-10-22T16:13:24.176Z,71.73
2022-10-22T16:15:51.564Z,72.13
2022-10-22T16:18:18.873Z,72.43
2022-10-22T16:20:45.704Z,73.20
2022-10-22T16:23:12.305Z,73.11
2022-10-22T16:25:42.440Z,73.16
2022-10-22T16:28:10.733Z,74.52
2022-10-22T16:30:38.903Z,73.82
2022-10-22T16:33:06.739Z,74.29
2022-10-22T16:35:33.445Z,74.07
2022-10-22T16:38:00.040Z,74.51
2022-10-22T16:40:26.671Z,74.83
2022-10-22T16:42:53.225Z,74.88
2022-10-22T16:45:19.744Z,75.19
2022-10-22T16:47:47.028Z,74.77
2022-10-22T16:50:13.641Z,75.61
2022-10-22T16:52:40.168Z,75.40
2022-10-22T16:55:07.191Z,75.17
2022-10-22T16:57:34.034Z,75.27
2022-10-22T17:00:00.551Z,75.38
2022-10-22T17:02:27.105Z,75.59
2022-10-22T17:04:53.728Z,75.62
2022-10-22T17:07:20.287Z,75.74
2022-10-22T17:09:46.895Z,75.42
2022-10-22T17:12:13.668Z,76.35
2022-10-22T17:14:40.305Z,76.21
2022-10-22T17:17:06.924Z,76.03
2022-10-22T17:19:34.240Z,76.44
2022-10-22T17:22:00.837Z,76.30
2022-10-22T17:24:27.401Z,76.58
2022-10-22T17:26:54.031Z,76.36
2022-10-22T17:29:21.940Z,77.41
2022-10-22T17:31:50.116Z,77.43
2022-10-22T17:34:17.594Z,77.21
2022-10-22T17:36:44.255Z,77.04
2022-10-22T17:39:15.309Z,77.82
2022-10-22T17:41:41.837Z,77.47
2022-10-22T17:44:12.283Z,77.53
2022-10-22T17:46:39.276Z,77.53
2022-10-22T17:49:13.054Z,77.79
2022-10-22T17:51:40.190Z,78.02
2022-10-22T17:54:09.018Z,79.93
2022-10-22T17:56:37.669Z,79.19
2022-10-22T17:59:04.346Z,79.36
2022-10-22T18:01:34.557Z,81.04
2022-10-22T18:04:03.554Z,79.57
2022-10-22T18:06:30.954Z,79.82
2022-10-22T18:08:57.886Z,80.04
2022-10-22T18:11:27.002Z,80.46
2022-10-22T18:13:55.593Z,80.79
2022-10-22T18:16:22.481Z,81.13
2022-10-22T18:18:51.584Z,81.31
2022-10-22T18:21:19.024Z,81.39
2022-10-22T18:23:46.285Z,80.43
2022-10-22T18:26:14.046Z,80.97
2022-10-22T18:28:40.971Z,80.88
2022-10-22T18:31:10.048Z,80.81
2022-10-22T18:33:37.207Z,80.25
2022-10-22T18:36:05.806Z,80.52
2022-10-22T18:38:32.649Z,79.99
2022-10-22T18:40:59.284Z,80.33
2022-10-22T18:43:25.906Z,80.03
2022-10-22T18:45:52.761Z,80.68
2022-10-22T18:48:20.610Z,80.98
2022-10-22T18:50:47.337Z,80.98
2022-10-22T18:53:16.103Z,81.68
2022-10-22T18:55:42.898Z,80.86
2022-10-22T18:58:09.491Z,81.55
2022-10-22T19:00:36.821Z,80.96
2022-10-22T19:03:03.496Z,81.59
2022-10-22T19:05:30.646Z,81.19
2022-10-22T19:07:57.293Z,81.28
2022-10-22T19:10:23.899Z,81.50
2022-10-22T19:12:50.553Z,80.50
2022-10-22T19:15:17.260Z,81.43
2022-10-22T19:17:44.141Z,81.00
2022-10-22T19:20:13.649Z,81.40
2022-10-22T19:22:40.266Z,81.43
2022-10-22T19:25:09.753Z,80.84
2022-10-22T19:27:39.679Z,80.90
2022-10-22T19:30:07.052Z,81.48
2022-10-22T19:32:34.388Z,81.25
2022-10-22T19:35:00.971Z,81.28
2022-10-22T19:37:27.815Z,81.82
2022-10-22T19:39:54.352Z,81.52
2022-10-22T19:42:20.935Z,81.57
2022-10-22T19:44:47.524Z,81.88
2022-10-22T19:47:15.221Z,81.23
2022-10-22T19:49:42.532Z,81.54
2022-10-22T19:52:09.402Z,81.15
2022-10-22T19:54:40.636Z,81.27
2022-10-22T19:57:08.322Z,81.56
2022-10-22T19:59:34.956Z,82.53
2022-10-22T20:02:02.182Z,82.06
2022-10-22T20:04:29.180Z,82.03
2022-10-22T20:06:55.754Z,82.45
2022-10-22T20:09:22.992Z,82.34
2022-10-22T20:11:49.711Z,82.25
2022-10-22T20:14:16.256Z,82.17
2022-10-22T20:16:43.198Z,81.98
2022-10-22T20:19:13.393Z,82.42
2022-10-22T20:21:40.427Z,82.52
2022-10-22T20:24:07.032Z,82.45
2022-10-22T20:26:34.351Z,82.49
2022-10-22T20:29:00.922Z,82.08
2022-10-22T20:31:29.537Z,82.46
2022-10-22T20:34:01.201Z,82.18
2022-10-22T20:36:29.507Z,82.33
2022-10-22T20:39:01.847Z,82.46
2022-10-22T20:41:29.385Z,82.09
2022-10-22T20:43:56.334Z,82.24
2022-10-22T20:46:29.368Z,83.23
2022-10-22T20:49:05.494Z,83.72
2022-10-22T20:51:32.086Z,84.39
2022-10-22T20:53:58.710Z,83.69
2022-10-22T20:56:25.692Z,84.07
2022-10-22T20:59:03.806Z,84.05
2022-10-22T21:01:36.940Z,85.28
2022-10-22T21:04:04.409Z,84.93
2022-10-22T21:06:31.032Z,84.94
2022-10-22T21:08:57.696Z,85.22
2022-10-22T21:11:24.457Z,84.74
2022-10-22T21:13:51.600Z,84.45
2022-10-22T21:16:19.543Z,84.14
2022-10-22T21:18:47.253Z,84.68
2022-10-22T21:21:16.897Z,84.20
2022-10-22T21:23:43.726Z,84.15
2022-10-22T21:26:10.515Z,84.04
2022-10-22T21:28:37.647Z,83.76
2022-10-22T21:31:06.409Z,83.92
2022-10-22T21:33:39.107Z,85.19
2022-10-22T21:36:06.885Z,84.82
2022-10-22T21:38:34.594Z,84.42
2022-10-22T21:41:05.839Z,84.76
2022-10-22T21:43:32.242Z,85.91
2022-10-22T21:46:08.210Z,85.67
2022-10-22T21:48:36.658Z,84.71
2022-10-22T21:51:15.301Z,85.80
2022-10-22T21:53:42.623Z,85.50
2022-10-22T21:56:17.141Z,85.11
2022-10-22T21:58:43.966Z,84.92
2022-10-22T22:01:11.603Z,84.37
2022-10-22T22:03:38.502Z,84.51
2022-10-22T22:06:06.630Z,84.73
2022-10-22T22:08:34.041Z,85.53
2022-10-22T22:11:09.564Z,84.99
2022-10-22T22:13:36.810Z,84.59
2022-10-22T22:16:06.898Z,84.43
2022-10-22T22:18:34.898Z,84.34
2022-10-22T22:21:04.934Z,85.03
2022-10-22T22:23:31.616Z,84.08
2022-10-22T22:26:01.772Z,84.77
2022-10-22T22:28:32.439Z,84.98
2022-10-22T22:30:59.218Z,84.55
2022-10-22T22:33:26.364Z,84.65
2022-10-22T22:35:53.228Z,84.36
2022-10-22T22:38:19.759Z,84.66
2022-10-22T22:40:46.298Z,84.35
2022-10-22T22:43:12.879Z,84.26
2022-10-22T22:45:40.698Z,84.35
2022-10-22T22:48:07.813Z,84.10
2022-10-22T22:50:36.585Z,84.30
2022-10-22T22:53:03.244Z,83.72
2022-10-22T22:55:31.941Z,84.23
2022-10-22T22:57:58.802Z,84.12
2022-10-22T23:00:25.309Z,84.33
2022-10-22T23:02:55.884Z,85.09
2022-10-22T23:05:22.482Z,84.63
2022-10-22T23:07:49.048Z,84.60
2022-10-22T23:10:15.800Z,85.12
2022-10-22T23:12:42.740Z,84.51
2022-10-22T23:15:09.832Z,85.66
2022-10-22T23:20:08.719Z,84.88
2022-10-22T23:22:35.339Z,85.07
2022-10-22T23:25:01.895Z,85.05
2022-10-22T23:27:28.489Z,84.63
2022-10-22T23:29:55.034Z,85.16
2022-10-22T23:32:21.627Z,84.83
2022-10-22T23:34:48.391Z,84.79
2022-10-22T23:37:14.906Z,84.97
2022-10-22T23:39:41.553Z,84.87
2022-10-22T23:42:08.123Z,84.73
2022-10-22T23:44:34.714Z,84.70
2022-10-22T23:47:01.255Z,85.00
2022-10-22T23:49:28.315Z,84.99
2022-10-22T23:51:54.853Z,85.07
2022-10-22T23:54:21.498Z,85.32
2022-10-22T23:56:48.054Z,85.30
